< < Back
Terminal Aerodrome Forecast


Current Version              Previous Versions:   1  2  3  4  5  6  7  8  9  

Terminal Aerodrome Forecast

487
FTUS44 KHUN 011120
TAFHSV
TAF
KHSV 011120Z 0112/0212 VRB03KT P6SM SKC
     FM011500 25006KT P6SM SCT060 SCT250
     FM011800 28010KT P6SM SCT050
     FM020000 VRB03KT P6SM SCT250=

Latest METAR

355
SAUS80 KWBC 020100 RRC
MTRHSV
METAR KHSV 020053Z 34006KT 10SM FEW070 FEW110 SCT250 30/18 A2999 RMK AO2
SLP146 T03000183


USA.gov is the U.S. government's official web portal to all federal, state and local government web resources and services.